Time;durP1;ratioP1;P1;durP2;ratioP2;P2;SDS_P1;SDS_P2;PMS_P1;PMS_P2;Temp;Humidity;BMP_temperature;BMP_pressure;BME280_temperature;BME280_humidity;BME280_pressure;Samples;Min_cycle;Max_cycle;Signal;HPM_P1;HPM_P2
2021/04/21 00:02:18;;;;;;;19.48;11.52;;;10.50;56.40;;;;;;2343916;53;20932;-65
2021/04/21 00:04:46;;;;;;;18.60;10.05;;;10.50;56.50;;;;;;2327447;54;21005;-65
2021/04/21 00:07:15;;;;;;;12.55;7.60;;;10.50;56.60;;;;;;2343739;54;20905;-66
2021/04/21 00:09:42;;;;;;;8.52;5.18;;;10.40;56.60;;;;;;2343878;54;21060;-65
2021/04/21 00:12:11;;;;;;;7.15;4.35;;;10.30;56.70;;;;;;2343596;53;22157;-67
2021/04/21 00:14:37;;;;;;;6.32;3.50;;;10.30;56.80;;;;;;2343419;53;20992;-67
2021/04/21 00:17:06;;;;;;;6.55;3.62;;;10.30;56.80;;;;;;2343582;53;20944;-68
2021/04/21 00:19:39;;;;;;;5.47;3.20;;;10.20;56.80;;;;;;2346469;53;20980;-68
2021/04/21 00:22:06;;;;;;;4.68;2.50;;;10.20;56.90;;;;;;2347553;53;20933;-65
2021/04/21 00:24:33;;;;;;;5.45;2.78;;;10.20;56.90;;;;;;2345180;53;21066;-67
2021/04/21 00:26:59;;;;;;;6.00;2.70;;;10.10;56.90;;;;;;2351429;53;20956;-67
2021/04/21 00:29:25;;;;;;;6.50;3.00;;;10.10;57.00;;;;;;2343539;53;20976;-68
2021/04/21 00:31:52;;;;;;;5.72;3.37;;;10.10;57.10;;;;;;2417039;53;21060;-66
2021/04/21 00:34:18;;;;;;;5.35;2.90;;;10.10;57.10;;;;;;2347350;53;20948;-67
2021/04/21 00:36:49;;;;;;;5.45;3.00;;;10.10;57.10;;;;;;2340980;53;21012;-65
2021/04/21 00:39:17;;;;;;;5.65;2.83;;;10.00;57.10;;;;;;2324026;54;20960;-66
2021/04/21 00:45:16;;;;;;;4.68;2.72;;;10.00;57.20;;;;;;2343691;53;21015;-67
2021/04/21 00:48:03;;;;;;;5.05;2.17;;;10.00;56.90;;;;;;2589923;53;20948;-66
2021/04/21 00:51:13;;;;;;;5.05;3.00;;;10.00;57.10;;;;;;2394090;53;21382;-66
2021/04/21 00:53:48;;;;;;;4.43;2.55;;;9.90;58.00;;;;;;2343559;53;21007;-67
2021/04/21 00:56:50;;;;;;;4.95;2.72;;;9.80;58.00;;;;;;2325476;54;21804;-65
2021/04/21 00:59:24;;;;;;;4.32;2.58;;;9.80;58.10;;;;;;2324301;54;20952;-66
2021/04/21 01:01:50;;;;;;;4.93;2.90;;;9.70;58.10;;;;;;2345627;53;21797;-66
2021/04/21 01:04:17;;;;;;;4.60;2.80;;;9.70;58.10;;;;;;2343799;53;20932;-64
2021/04/21 01:06:44;;;;;;;4.87;2.80;;;9.70;58.20;;;;;;2590547;53;20927;-67
2021/04/21 01:09:11;;;;;;;4.95;2.87;;;9.60;58.20;;;;;;2590337;53;21082;-65
2021/04/21 01:11:48;;;;;;;5.15;2.80;;;9.60;58.20;;;;;;2346841;53;20992;-65
2021/04/21 01:14:22;;;;;;;5.07;3.08;;;9.60;58.20;;;;;;2324162;53;20904;-66
2021/04/21 01:16:52;;;;;;;4.90;2.60;;;9.50;58.20;;;;;;2324376;54;20957;-67
2021/04/21 01:20:17;;;;;;;4.72;2.95;;;9.50;58.20;;;;;;2324120;54;21020;-66
2021/04/21 01:25:44;;;;;;;5.07;2.90;;;9.50;58.30;;;;;;2343826;53;20984;-65
2021/04/21 01:28:11;;;;;;;4.20;2.40;;;9.40;58.10;;;;;;2343666;53;20961;-66
2021/04/21 01:30:40;;;;;;;5.80;2.85;;;9.40;58.20;;;;;;2343797;54;20936;-67
2021/04/21 01:33:19;;;;;;;5.30;2.80;;;9.30;58.20;;;;;;2344171;53;20936;-66
2021/04/21 01:35:52;;;;;;;5.78;3.80;;;9.30;58.40;;;;;;2343788;53;20917;-68
2021/04/21 01:38:19;;;;;;;9.23;5.10;;;9.30;58.40;;;;;;2344141;53;20964;-65
2021/04/21 01:40:45;;;;;;;11.60;6.32;;;9.20;58.40;;;;;;2343670;53;20936;-67
2021/04/21 01:43:19;;;;;;;11.65;6.97;;;9.20;58.50;;;;;;2344503;53;20921;-66
2021/04/21 01:45:47;;;;;;;9.85;6.00;;;9.20;58.60;;;;;;2347029;53;21000;-66
2021/04/21 01:48:22;;;;;;;10.80;6.53;;;9.20;58.70;;;;;;2343354;53;21011;-65
2021/04/21 01:50:50;;;;;;;11.27;6.45;;;9.10;58.70;;;;;;2343537;53;21000;-65
2021/04/21 01:53:59;;;;;;;8.40;4.80;;;9.10;58.70;;;;;;2344318;53;20928;-66
2021/04/21 01:56:33;;;;;;;9.45;4.25;;;9.00;58.60;;;;;;2348073;53;20912;-67
2021/04/21 01:59:21;;;;;;;7.57;3.75;;;9.00;58.60;;;;;;2342888;53;21008;-67
2021/04/21 02:01:59;;;;;;;7.18;4.43;;;9.00;58.60;;;;;;2343791;53;20928;-66
2021/04/21 02:04:55;;;;;;;6.60;3.80;;;8.90;58.60;;;;;;2343593;53;21028;-66
2021/04/21 02:07:59;;;;;;;5.50;3.30;;;8.90;58.50;;;;;;2344103;53;20981;-64
2021/04/21 02:11:11;;;;;;;6.37;3.80;;;8.90;58.60;;;;;;2343885;53;21484;-67
2021/04/21 02:14:32;;;;;;;6.90;3.80;;;8.80;58.60;;;;;;2589812;53;20937;-63
2021/04/21 02:20:10;;;;;;;5.37;3.20;;;8.80;58.60;;;;;;2347940;53;21026;-67
2021/04/21 02:22:54;;;;;;;5.15;2.70;;;8.70;58.50;;;;;;2343388;53;20948;-65
2021/04/21 02:27:24;;;;;;;8.30;4.03;;;8.70;58.60;;;;;;2350933;53;21100;-67
2021/04/21 02:30:14;;;;;;;5.07;2.83;;;8.60;58.60;;;;;;2343502;53;20932;-66
2021/04/21 02:32:48;;;;;;;5.35;3.20;;;8.60;58.70;;;;;;2346550;53;21008;-67
2021/04/21 02:35:37;;;;;;;6.40;3.58;;;8.50;58.60;;;;;;2344416;53;20976;-67
2021/04/21 02:39:54;;;;;;;6.12;3.90;;;8.50;58.70;;;;;;2425481;53;20972;-66
2021/04/21 02:46:06;;;;;;;6.32;2.75;;;8.40;58.60;;;;;;2589922;53;21024;-66
2021/04/21 02:48:46;;;;;;;4.20;2.22;;;8.40;58.50;;;;;;2343597;53;21544;-68
2021/04/21 02:51:40;;;;;;;5.00;2.75;;;8.30;58.60;;;;;;2590002;53;20939;-65
2021/04/21 02:54:10;;;;;;;;;;;8.30;58.70;;;;;;2595296;53;20956;-67
2021/04/21 02:57:08;;;;;;;5.12;2.85;;;8.20;58.50;;;;;;2347929;53;20114;-65
2021/04/21 03:00:06;;;;;;;5.22;3.08;;;8.20;58.70;;;;;;2580186;53;20933;-66
2021/04/21 03:02:35;;;;;;;5.50;3.40;;;8.20;59.00;;;;;;2349912;53;20932;-67
2021/04/21 03:05:21;;;;;;;6.90;3.83;;;8.10;58.90;;;;;;2351809;53;21429;-66
2021/04/21 03:08:19;;;;;;;5.60;3.65;;;8.10;59.00;;;;;;2345214;53;21059;-66
2021/04/21 03:10:55;;;;;;;5.95;3.40;;;8.10;59.60;;;;;;2343139;53;20952;-65
2021/04/21 03:13:24;;;;;;;7.28;3.30;;;8.10;59.00;;;;;;2343570;53;21436;-65
2021/04/21 03:15:53;;;;;;;6.53;3.55;;;8.00;59.00;;;;;;2343399;53;21128;-65
2021/04/21 03:18:20;;;;;;;6.15;3.50;;;8.00;59.00;;;;;;2343539;53;20913;-66
2021/04/21 03:20:52;;;;;;;6.35;3.35;;;8.00;59.10;;;;;;2347653;53;20944;-64
2021/04/21 03:23:19;;;;;;;5.40;2.85;;;7.90;59.00;;;;;;2342894;53;20939;-65
2021/04/21 03:25:45;;;;;;;5.62;3.22;;;7.90;59.10;;;;;;2346343;53;21524;-67
2021/04/21 03:28:12;;;;;;;6.50;3.75;;;7.90;59.10;;;;;;2343849;53;20985;-65
2021/04/21 03:30:38;;;;;;;6.25;3.83;;;7.90;59.20;;;;;;2589926;53;20917;-67
2021/04/21 03:33:22;;;;;;;7.20;3.65;;;7.90;59.20;;;;;;2343812;53;20976;-67
2021/04/21 03:35:50;;;;;;;6.10;3.58;;;7.90;59.20;;;;;;2343369;53;20948;-65
2021/04/21 03:38:16;;;;;;;5.05;3.17;;;7.90;59.20;;;;;;2512906;53;20948;-67
2021/04/21 03:40:43;;;;;;;6.28;3.42;;;7.80;59.20;;;;;;2343335;53;21015;-66
2021/04/21 03:43:09;;;;;;;6.40;3.78;;;7.80;59.10;;;;;;2343400;53;21740;-67
2021/04/21 03:45:45;;;;;;;5.30;3.30;;;7.80;59.10;;;;;;2582038;53;21016;-68
2021/04/21 03:48:13;;;;;;;5.87;3.17;;;7.80;59.20;;;;;;2343423;53;21471;-67
2021/04/21 03:50:40;;;;;;;5.25;3.40;;;7.80;59.20;;;;;;2342940;53;20984;-64
2021/04/21 03:53:07;;;;;;;5.65;3.42;;;7.70;59.10;;;;;;2588931;53;20945;-67
2021/04/21 03:55:34;;;;;;;5.07;3.17;;;7.70;59.20;;;;;;2343491;53;20988;-66
2021/04/21 03:58:08;;;;;;;6.18;3.78;;;7.70;59.20;;;;;;2343392;53;20929;-64
2021/04/21 04:00:39;;;;;;;5.80;3.25;;;7.60;59.20;;;;;;2352029;53;21472;-66
2021/04/21 04:03:19;;;;;;;5.82;3.67;;;7.60;59.30;;;;;;2331178;53;21006;-66
2021/04/21 04:07:16;;;;;;;6.03;3.45;;;7.60;59.40;;;;;;2421373;53;21040;-65
2021/04/21 04:09:45;;;;;;;5.10;2.83;;;7.60;59.30;;;;;;2343191;53;20956;-64
2021/04/21 04:12:13;;;;;;;5.55;2.87;;;7.60;59.20;;;;;;2347771;53;21071;-65
2021/04/21 04:14:39;;;;;;;5.62;3.25;;;7.50;59.20;;;;;;2341660;53;20933;-65
2021/04/21 04:17:06;;;;;;;6.57;3.55;;;7.50;59.20;;;;;;2343737;53;20940;-68
2021/04/21 04:19:37;;;;;;;6.65;3.80;;;7.50;59.40;;;;;;2590276;53;20972;-66
2021/04/21 04:22:12;;;;;;;5.82;3.62;;;7.50;59.50;;;;;;2343301;53;20933;-67
2021/04/21 04:24:54;;;;;;;5.85;3.50;;;7.50;59.60;;;;;;2343211;53;21299;-65
2021/04/21 04:27:24;;;;;;;5.78;3.35;;;7.50;59.60;;;;;;2589280;53;22394;-64
2021/04/21 04:29:51;;;;;;;5.60;3.08;;;7.40;59.40;;;;;;2347485;53;21004;-65
2021/04/21 04:32:19;;;;;;;6.28;3.83;;;7.40;59.50;;;;;;2342754;53;20944;-65
2021/04/21 04:34:50;;;;;;;5.53;3.42;;;7.40;59.50;;;;;;2346789;53;20979;-66
2021/04/21 04:37:19;;;;;;;6.05;3.72;;;7.40;59.60;;;;;;2589759;53;20992;-64
2021/04/21 04:39:46;;;;;;;6.55;4.00;;;7.40;59.60;;;;;;2339414;53;20993;-67
2021/04/21 04:42:12;;;;;;;7.37;3.60;;;7.40;59.60;;;;;;2342321;53;20993;-65
2021/04/21 04:44:43;;;;;;;8.18;3.80;;;7.30;59.60;;;;;;2350730;53;20912;-67
2021/04/21 04:47:12;;;;;;;6.12;3.67;;;7.30;59.70;;;;;;2343114;53;21430;-65
2021/04/21 04:50:03;;;;;;;6.80;4.18;;;7.30;59.80;;;;;;2343207;53;21425;-67
2021/04/21 04:52:35;;;;;;;7.30;4.15;;;7.30;60.00;;;;;;2518452;54;21083;-66
2021/04/21 04:55:02;;;;;;;9.07;4.95;;;7.30;60.00;;;;;;2325002;54;21044;-64
2021/04/21 04:57:32;;;;;;;6.87;4.40;;;7.30;60.10;;;;;;2343269;53;20920;-66
2021/04/21 05:00:04;;;;;;;6.43;4.15;;;7.30;60.40;;;;;;2590039;53;20924;-65
2021/04/21 05:02:34;;;;;;;7.10;4.00;;;7.40;60.70;;;;;;2323704;55;20984;-65
2021/04/21 05:05:03;;;;;;;6.70;3.78;;;7.40;60.60;;;;;;2562413;53;20964;-65
2021/04/21 05:07:47;;;;;;;5.85;3.95;;;7.40;60.50;;;;;;2343703;53;21016;-66
2021/04/21 05:10:17;;;;;;;6.57;4.00;;;7.40;60.50;;;;;;2343546;53;20921;-66
2021/04/21 05:12:43;;;;;;;6.95;4.00;;;7.40;60.40;;;;;;2343216;53;20960;-67
2021/04/21 05:16:00;;;;;;;6.43;3.58;;;7.40;60.40;;;;;;2343227;53;20933;-65
2021/04/21 05:19:03;;;;;;;4.90;3.05;;;7.50;60.30;;;;;;2342630;53;20920;-65
2021/04/21 05:25:14;;;;;;;5.87;3.25;;;7.50;60.30;;;;;;2345658;53;21056;-67
2021/04/21 05:34:53;;;;;;;5.75;3.25;;;7.50;60.20;;;;;;2542433;53;20945;-65
2021/04/21 05:44:21;;;;;;;7.82;2.97;;;7.60;60.10;;;;;;2342664;53;21804;-66
2021/04/21 05:47:49;;;;;;;5.37;3.10;;;7.60;60.50;;;;;;2588761;53;20996;-66
2021/04/21 05:50:55;;;;;;;6.20;3.45;;;7.70;60.80;;;;;;2342647;53;20932;-66
2021/04/21 05:56:16;;;;;;;6.12;3.53;;;7.80;61.10;;;;;;2343227;53;20952;-66
2021/04/21 05:59:13;;;;;;;6.20;3.75;;;7.80;61.40;;;;;;2343988;53;21015;-67
2021/04/21 06:01:41;;;;;;;6.37;3.92;;;7.90;61.60;;;;;;2453621;53;21053;-67
2021/04/21 06:04:08;;;;;;;6.90;3.87;;;7.90;61.70;;;;;;2343771;53;21113;-67
2021/04/21 06:06:34;;;;;;;7.72;4.03;;;8.00;62.00;;;;;;2343461;53;20928;-65
2021/04/21 06:09:07;;;;;;;7.97;5.10;;;8.10;62.20;;;;;;2343675;53;20948;-66
2021/04/21 06:11:34;;;;;;;7.20;4.15;;;8.20;62.50;;;;;;2323537;54;20940;-66
2021/04/21 06:14:02;;;;;;;7.78;5.00;;;8.30;62.60;;;;;;2343397;53;21313;-66
2021/04/21 06:16:29;;;;;;;7.28;4.95;;;8.40;62.80;;;;;;2344157;53;20976;-66
2021/04/21 06:19:05;;;;;;;8.95;5.03;;;8.50;63.00;;;;;;2343722;53;21449;-66
2021/04/21 06:21:36;;;;;;;8.80;5.28;;;8.60;63.20;;;;;;2562497;53;20965;-66
2021/04/21 06:24:17;;;;;;;7.45;4.87;;;8.70;63.30;;;;;;2347467;53;21520;-64
2021/04/21 06:26:43;;;;;;;7.32;4.78;;;8.80;63.50;;;;;;2589885;53;21000;-65
2021/04/21 06:29:09;;;;;;;8.65;5.45;;;8.90;63.60;;;;;;2590495;53;20984;-67
2021/04/21 06:31:49;;;;;;;8.73;5.47;;;9.00;63.70;;;;;;2346427;53;21059;-66
2021/04/21 06:34:16;;;;;;;8.38;5.35;;;9.10;63.90;;;;;;2346840;53;21093;-68
2021/04/21 06:36:55;;;;;;;7.57;5.22;;;9.30;64.00;;;;;;2323914;53;21479;-65
2021/04/21 06:39:22;;;;;;;8.20;4.80;;;9.40;64.10;;;;;;2343204;53;20925;-68
2021/04/21 06:42:00;;;;;;;9.85;5.62;;;9.50;64.20;;;;;;2344034;53;20999;-67
2021/04/21 06:44:42;;;;;;;8.75;5.85;;;9.70;64.40;;;;;;2343556;53;21107;-68
2021/04/21 06:47:18;;;;;;;7.90;5.22;;;9.80;64.40;;;;;;2346835;53;21418;-65
2021/04/21 06:49:56;;;;;;;9.95;5.87;;;10.00;63.50;;;;;;2457165;53;20984;-66
2021/04/21 06:52:22;;;;;;;9.05;6.15;;;10.10;63.80;;;;;;2572951;53;21522;-67
2021/04/21 06:55:12;;;;;;;8.85;5.90;;;10.40;65.00;;;;;;2344011;53;20976;-69
2021/04/21 06:57:38;;;;;;;10.55;7.03;;;10.60;66.80;;;;;;2323874;54;20957;-67
2021/04/21 07:00:12;;;;;;;9.63;7.10;;;11.00;68.70;;;;;;2346627;53;20998;-67
2021/04/21 07:02:45;;;;;;;9.73;5.95;;;11.50;70.40;;;;;;2337223;53;20968;-67
2021/04/21 07:08:43;;;;;;;9.85;6.80;;;12.10;72.10;;;;;;2328510;54;21592;-69
2021/04/21 07:11:17;;;;;;;6.60;4.50;;;13.70;71.50;;;;;;2343476;53;20952;-69
2021/04/21 07:13:45;;;;;;;7.85;5.57;;;14.40;74.70;;;;;;2343730;53;20936;-69
2021/04/21 07:16:22;;;;;;;7.93;6.25;;;15.00;74.20;;;;;;2347625;53;20940;-68
2021/04/21 07:18:53;;;;;;;8.45;6.85;;;15.70;72.20;;;;;;2343121;53;20917;-68
2021/04/21 07:21:19;;;;;;;7.68;6.18;;;16.30;71.40;;;;;;2343530;53;21004;-67
2021/04/21 07:23:50;;;;;;;8.63;6.12;;;16.90;70.80;;;;;;2343241;53;21492;-68
2021/04/21 07:26:17;;;;;;;7.40;5.82;;;17.40;70.30;;;;;;2343859;53;20980;-67
2021/04/21 07:28:44;;;;;;;8.48;6.57;;;17.80;70.10;;;;;;2590049;53;21473;-67
2021/04/21 07:31:17;;;;;;;7.50;5.82;;;18.30;69.10;;;;;;2347521;53;21027;-66
2021/04/21 07:33:45;;;;;;;8.45;5.87;;;18.70;68.90;;;;;;2346816;53;20961;-67
2021/04/21 07:36:29;;;;;;;7.32;5.72;;;19.10;68.30;;;;;;2328429;54;21009;-69
2021/04/21 07:39:07;;;;;;;9.35;5.03;;;19.50;65.70;;;;;;2346138;54;20917;-68
2021/04/21 07:41:39;;;;;;;6.05;4.65;;;19.80;66.60;;;;;;2344675;53;21012;-67
2021/04/21 07:44:06;;;;;;;6.90;4.75;;;20.10;65.40;;;;;;2343796;53;20988;-68
2021/04/21 07:46:33;;;;;;;5.50;4.22;;;20.30;64.80;;;;;;2343288;53;20935;-70
2021/04/21 07:49:05;;;;;;;7.03;4.53;;;20.40;63.60;;;;;;2343032;53;20996;-67
2021/04/21 07:51:31;;;;;;;;;;;20.40;62.20;;;;;;2415023;53;21000;-67
2021/04/21 07:55:01;;;;;;;5.75;4.53;;;20.40;60.30;;;;;;2346877;53;20087;-67
2021/04/21 07:57:27;;;;;;;6.55;4.93;;;20.30;60.20;;;;;;2343567;53;21019;-69
2021/04/21 07:59:56;;;;;;;6.95;5.22;;;20.10;59.20;;;;;;2346640;53;20949;-68
2021/04/21 08:02:22;;;;;;;7.40;4.93;;;20.00;58.70;;;;;;2545683;53;20956;-67
2021/04/21 08:05:08;;;;;;;7.50;5.47;;;19.80;58.30;;;;;;2348609;53;20996;-68
2021/04/21 08:07:41;;;;;;;9.63;5.37;;;19.70;57.40;;;;;;2343951;53;21023;-67
2021/04/21 08:11:11;;;;;;;7.72;5.72;;;19.50;57.70;;;;;;2343520;53;21007;-70
2021/04/21 08:13:45;;;;;;;7.87;5.65;;;19.40;56.80;;;;;;2590098;53;21131;-66
2021/04/21 08:16:25;;;;;;;7.47;5.55;;;19.40;58.50;;;;;;2344058;53;21003;-69
2021/04/21 08:18:51;;;;;;;7.47;5.55;;;19.50;58.70;;;;;;2343172;53;21397;-70
2021/04/21 08:24:49;;;;;;;8.13;6.03;;;19.50;60.80;;;;;;2347274;53;20996;-67
2021/04/21 08:27:16;;;;;;;5.60;4.03;;;20.20;60.00;;;;;;2480335;54;21464;-68
2021/04/21 08:29:44;;;;;;;6.97;5.12;;;20.50;63.90;;;;;;2343610;53;21027;-66
2021/04/21 08:32:11;;;;;;;7.00;5.12;;;20.70;64.10;;;;;;2343775;53;20992;-70
2021/04/21 08:34:38;;;;;;;7.18;5.12;;;21.00;62.90;;;;;;2347091;53;20964;-69
2021/04/21 08:37:05;;;;;;;7.70;5.47;;;21.30;62.00;;;;;;2343801;53;21011;-69
2021/04/21 08:39:36;;;;;;;7.22;5.70;;;21.60;61.30;;;;;;2347053;53;20948;-68
2021/04/21 08:42:02;;;;;;;6.53;5.18;;;21.80;60.40;;;;;;2589231;53;21468;-71
2021/04/21 08:44:35;;;;;;;7.45;5.30;;;21.90;59.70;;;;;;2343266;53;20996;-71
2021/04/21 08:47:01;;;;;;;7.90;5.80;;;22.10;59.30;;;;;;2590162;53;20956;-68
2021/04/21 08:49:29;;;;;;;7.55;5.93;;;22.20;58.80;;;;;;2343427;53;20979;-67
2021/04/21 08:51:56;;;;;;;7.55;5.68;;;22.20;58.20;;;;;;2344007;53;20972;-69
2021/04/21 08:54:23;;;;;;;7.85;5.57;;;22.30;58.20;;;;;;2343003;53;20977;-68
2021/04/21 08:56:50;;;;;;;7.35;5.47;;;22.40;57.50;;;;;;2341573;53;21064;-69
2021/04/21 08:59:17;;;;;;;7.05;5.60;;;22.40;57.30;;;;;;2582795;53;20988;-68
2021/04/21 09:01:45;;;;;;;7.10;5.53;;;22.40;57.40;;;;;;2342945;53;20977;-70
2021/04/21 09:04:15;;;;;;;9.00;6.55;;;22.60;58.70;;;;;;2590289;53;20996;-71
2021/04/21 09:06:43;;;;;;;11.85;6.75;;;22.80;57.40;;;;;;2590174;53;20948;-69
2021/04/21 09:09:09;;;;;;;7.97;5.90;;;23.00;56.50;;;;;;2343383;53;20951;-67
2021/04/21 09:11:36;;;;;;;7.87;5.93;;;23.10;56.80;;;;;;2346969;53;20997;-71
2021/04/21 09:14:02;;;;;;;7.18;5.87;;;23.20;56.90;;;;;;2343033;53;20976;-69
2021/04/21 09:16:29;;;;;;;8.05;5.90;;;23.30;57.20;;;;;;2346413;53;20932;-71
2021/04/21 09:18:55;;;;;;;8.13;6.05;;;23.50;57.30;;;;;;2343353;53;21186;-69
2021/04/21 09:21:28;;;;;;;8.05;5.75;;;23.70;57.40;;;;;;2342847;53;20940;-67
2021/04/21 09:23:57;;;;;;;7.07;5.93;;;23.90;57.20;;;;;;2324343;54;20941;-68
2021/04/21 09:26:32;;;;;;;10.80;6.47;;;24.00;56.90;;;;;;2324652;54;20992;-68
2021/04/21 09:29:00;;;;;;;7.00;5.53;;;24.20;55.90;;;;;;2345245;53;21473;-68
2021/04/21 09:31:29;;;;;;;7.22;5.80;;;24.20;55.00;;;;;;2420419;53;20941;-70
2021/04/21 09:35:47;;;;;;;10.00;6.12;;;24.20;54.20;;;;;;2343487;53;21008;-68
2021/04/21 09:38:21;;;;;;;7.78;5.10;;;24.10;52.60;;;;;;2343904;53;20944;-71
2021/04/21 09:40:49;;;;;;;6.93;5.20;;;23.90;53.50;;;;;;2347691;53;20994;-72
2021/04/21 09:43:18;;;;;;;6.70;5.50;;;23.80;53.20;;;;;;2342842;53;20936;-68
2021/04/21 09:45:51;;;;;;;7.60;5.10;;;23.70;53.00;;;;;;2343084;53;21051;-71
2021/04/21 09:48:19;;;;;;;7.55;5.80;;;23.60;52.70;;;;;;2444250;53;20984;-70
2021/04/21 09:50:56;;;;;;;6.65;5.40;;;23.60;53.30;;;;;;2343041;53;20999;-70
2021/04/21 09:53:24;;;;;;;6.30;4.95;;;23.60;52.10;;;;;;2343759;53;20949;-70
2021/04/21 09:55:58;;;;;;;7.37;5.62;;;23.70;53.30;;;;;;2347021;53;20983;-68
2021/04/21 09:59:04;;;;;;;7.07;5.43;;;23.70;52.10;;;;;;2324865;53;20937;-71
2021/04/21 10:01:35;;;;;;;6.43;4.78;;;23.80;52.10;;;;;;2343879;53;20933;-71
2021/04/21 10:04:34;;;;;;;7.30;5.12;;;23.80;52.50;;;;;;2343639;53;20972;-72
2021/04/21 10:07:03;;;;;;;6.60;4.75;;;23.90;51.10;;;;;;2342901;53;20992;-70
2021/04/21 10:09:37;;;;;;;6.53;4.82;;;23.90;53.00;;;;;;2343006;53;21857;-71
2021/04/21 10:12:28;;;;;;;7.25;5.40;;;24.00;52.10;;;;;;2343059;53;21071;-71
2021/04/21 10:15:11;;;;;;;9.02;5.47;;;24.10;51.50;;;;;;2344635;53;20979;-71
2021/04/21 10:17:50;;;;;;;6.85;4.82;;;24.20;52.30;;;;;;2346423;53;21659;-70
2021/04/21 10:20:18;;;;;;;7.22;5.45;;;24.40;52.80;;;;;;2343195;53;20980;-72
2021/04/21 10:22:48;;;;;;;8.00;5.47;;;24.60;54.10;;;;;;2347420;53;20940;-70
2021/04/21 10:25:15;;;;;;;6.80;4.80;;;24.80;53.60;;;;;;2341634;53;20951;-69
2021/04/21 10:27:41;;;;;;;8.35;5.20;;;25.00;53.40;;;;;;2343185;53;21549;-68
2021/04/21 10:30:08;;;;;;;6.62;5.12;;;25.10;53.00;;;;;;2422349;53;20952;-69
2021/04/21 10:32:35;;;;;;;7.03;4.72;;;25.20;52.40;;;;;;2347381;53;20944;-68
2021/04/21 10:35:04;;;;;;;7.00;5.05;;;25.20;52.30;;;;;;2589641;53;20936;-70
2021/04/21 10:37:39;;;;;;;6.72;4.93;;;25.30;52.10;;;;;;2346867;53;20961;-71
2021/04/21 10:40:05;;;;;;;6.72;4.78;;;25.30;51.20;;;;;;2419485;53;20964;-72
2021/04/21 10:42:49;;;;;;;7.62;5.43;;;25.40;52.30;;;;;;2343576;53;20965;-71
2021/04/21 10:45:16;;;;;;;6.22;4.25;;;25.60;51.20;;;;;;2412283;53;20933;-69
2021/04/21 10:47:47;;;;;;;6.03;4.37;;;25.80;52.90;;;;;;2343133;53;20945;-70
2021/04/21 10:50:14;;;;;;;7.25;4.90;;;26.00;52.10;;;;;;2342665;54;20936;-70
2021/04/21 10:52:42;;;;;;;6.03;4.93;;;26.20;52.20;;;;;;2342637;53;20953;-72
2021/04/21 10:55:54;;;;;;;7.03;4.68;;;26.40;51.70;;;;;;2347861;53;20925;-71
2021/04/21 10:58:21;;;;;;;6.85;4.82;;;26.60;49.90;;;;;;2459549;53;1744972;-72
2021/04/21 11:00:48;;;;;;;6.30;5.00;;;26.70;50.30;;;;;;2347582;53;20945;-71
2021/04/21 11:03:26;;;;;;;6.95;4.72;;;26.70;49.60;;;;;;2346857;53;20960;-70
2021/04/21 11:05:57;;;;;;;6.75;4.93;;;26.80;49.10;;;;;;2342678;53;20944;-71
2021/04/21 11:09:18;;;;;;;6.30;4.35;;;26.80;48.90;;;;;;2358331;53;20964;-71
2021/04/21 11:11:48;;;;;;;8.18;4.10;;;26.90;47.20;;;;;;2346645;53;20988;-68
2021/04/21 11:21:10;;;;;;;7.37;4.50;;;26.90;48.70;;;;;;2342684;53;20964;-69
2021/04/21 11:25:41;;;;;;;5.70;3.62;;;26.90;46.90;;;;;;2343144;53;21588;-70
2021/04/21 11:28:07;;;;;;;5.50;3.72;;;26.90;47.80;;;;;;2343741;53;21676;-72
2021/04/21 11:31:16;;;;;;;5.50;4.03;;;27.00;50.40;;;;;;2589769;53;20957;-71
2021/04/21 11:33:52;;;;;;;6.05;4.05;;;27.10;47.30;;;;;;2589879;53;21853;-69
2021/04/21 11:37:08;;;;;;;5.40;3.80;;;27.20;46.60;;;;;;2343309;53;20966;-71
2021/04/21 11:40:24;;;;;;;5.80;3.50;;;27.20;46.40;;;;;;2343264;53;21611;-73
2021/04/21 11:42:51;;;;;;;4.15;2.80;;;27.20;45.50;;;;;;2343389;53;21023;-69
2021/04/21 11:45:20;;;;;;;5.30;3.62;;;27.20;47.60;;;;;;2343783;53;20956;-70
2021/04/21 11:47:54;;;;;;;4.62;3.22;;;27.20;46.90;;;;;;2343665;53;21421;-68
2021/04/21 11:50:26;;;;;;;4.57;3.03;;;27.20;46.10;;;;;;2342858;53;20933;-70
2021/04/21 11:53:38;;;;;;;5.45;3.83;;;27.20;46.00;;;;;;2584094;53;20960;-69
2021/04/21 11:56:08;;;;;;;5.10;3.45;;;27.20;44.80;;;;;;2344597;53;20928;-71
2021/04/21 11:58:37;;;;;;;6.18;4.25;;;27.20;45.00;;;;;;2344316;53;21000;-68
2021/04/21 12:01:10;;;;;;;5.90;3.70;;;27.10;44.50;;;;;;2346848;54;20952;-72
2021/04/21 12:03:36;;;;;;;;;;;27.10;43.90;;;;;;2346387;53;20940;-70
2021/04/21 12:06:24;;;;;;;4.87;2.90;;;27.00;44.40;;;;;;2590351;53;20119;-69
2021/04/21 12:08:51;;;;;;;4.40;2.92;;;27.00;44.90;;;;;;2589216;53;20949;-69
2021/04/21 12:11:33;;;;;;;4.65;2.50;;;27.00;44.90;;;;;;2343361;53;21001;-70
2021/04/21 12:13:59;;;;;;;5.00;2.62;;;27.10;43.70;;;;;;2343806;53;20976;-70
2021/04/21 12:16:28;;;;;;;4.90;3.00;;;27.20;45.20;;;;;;2344144;53;21811;-70
2021/04/21 12:18:57;;;;;;;4.75;3.10;;;27.30;45.20;;;;;;2589768;53;20997;-70
2021/04/21 12:21:36;;;;;;;4.97;3.12;;;27.50;45.20;;;;;;2342909;53;21501;-73
2021/04/21 12:24:04;;;;;;;4.37;2.75;;;27.60;44.30;;;;;;2347621;53;21020;-72
2021/04/21 12:26:41;;;;;;;5.85;3.17;;;27.80;44.50;;;;;;2334925;53;20960;-69
2021/04/21 12:29:14;;;;;;;5.03;2.95;;;27.90;44.50;;;;;;2562765;53;20973;-70
2021/04/21 12:31:42;;;;;;;4.97;2.80;;;28.10;43.90;;;;;;2346228;53;21108;-71
2021/04/21 12:34:18;;;;;;;4.35;2.83;;;28.20;44.30;;;;;;2349832;53;20957;-68
2021/04/21 12:36:46;;;;;;;4.32;2.83;;;28.30;43.00;;;;;;2343422;53;20999;-73
2021/04/21 12:39:16;;;;;;;4.95;3.00;;;28.40;43.90;;;;;;2344553;53;21449;-69
2021/04/21 12:41:58;;;;;;;4.07;2.60;;;28.50;43.20;;;;;;2345909;57;21048;-70
2021/04/21 12:44:28;;;;;;;3.10;2.05;;;28.60;43.90;;;;;;2345594;57;21529;-69
2021/04/21 12:46:55;;;;;;;3.58;2.28;;;28.70;43.30;;;;;;2336552;53;21770;-70
2021/04/21 12:49:40;;;;;;;3.90;2.30;;;28.90;43.10;;;;;;2343006;53;21004;-70
2021/04/21 12:52:09;;;;;;;3.97;2.42;;;29.00;40.40;;;;;;2393843;53;21004;-69
2021/04/21 12:54:50;;;;;;;4.20;2.30;;;29.10;41.70;;;;;;2351138;53;20980;-70
2021/04/21 12:57:26;;;;;;;5.03;2.00;;;29.10;39.90;;;;;;2318482;54;20948;-67
2021/04/21 12:59:54;;;;;;;4.70;2.22;;;29.00;39.70;;;;;;2346680;54;21827;-70
2021/04/21 13:02:43;;;;;;;4.25;2.40;;;28.90;40.70;;;;;;2342589;53;21381;-71
2021/04/21 13:05:11;;;;;;;5.68;2.22;;;28.90;38.70;;;;;;2347202;53;20901;-69
2021/04/21 13:07:37;;;;;;;3.47;2.20;;;28.70;39.80;;;;;;2347763;53;21409;-68
2021/04/21 13:10:11;;;;;;;3.62;2.20;;;28.60;39.40;;;;;;2586342;53;20932;-70
2021/04/21 13:12:38;;;;;;;3.70;2.53;;;28.50;38.10;;;;;;2343182;53;20981;-70
2021/04/21 13:15:14;;;;;;;4.60;2.72;;;28.20;38.80;;;;;;2574876;53;20949;-71
2021/04/21 13:17:54;;;;;;;3.50;2.10;;;28.10;37.80;;;;;;2343223;53;20932;-70
2021/04/21 13:20:39;;;;;;;4.03;2.37;;;27.80;36.30;;;;;;2343162;53;21039;-71
2021/04/21 13:23:13;;;;;;;6.45;3.00;;;27.50;36.40;;;;;;2343707;53;21829;-72
2021/04/21 13:26:01;;;;;;;4.05;2.55;;;27.20;37.00;;;;;;2343451;53;20960;-70
2021/04/21 13:28:51;;;;;;;4.53;2.70;;;27.00;37.40;;;;;;2343540;53;21004;-70
2021/04/21 13:31:23;;;;;;;4.50;2.83;;;26.80;37.50;;;;;;2342869;53;20909;-68
2021/04/21 13:33:50;;;;;;;4.70;2.60;;;26.70;39.60;;;;;;2343038;53;21005;-70
2021/04/21 13:36:17;;;;;;;4.70;3.20;;;26.70;39.70;;;;;;2344219;53;21064;-70
2021/04/21 13:38:44;;;;;;;4.22;2.80;;;26.60;39.30;;;;;;2344250;54;20956;-70
2021/04/21 13:41:10;;;;;;;4.68;2.83;;;26.50;39.40;;;;;;2330829;53;21638;-70
2021/04/21 13:43:36;;;;;;;4.32;2.60;;;26.50;39.30;;;;;;2344546;53;21016;-69
2021/04/21 13:46:03;;;;;;;4.85;2.60;;;26.50;39.30;;;;;;2342408;53;21002;-70
2021/04/21 13:48:31;;;;;;;4.18;2.30;;;26.50;39.40;;;;;;2356408;53;20945;-73
2021/04/21 13:50:58;;;;;;;4.10;2.28;;;26.50;39.70;;;;;;2346613;53;20928;-72
2021/04/21 13:53:25;;;;;;;3.60;2.40;;;26.50;39.70;;;;;;2348475;53;20917;-70
2021/04/21 13:55:51;;;;;;;5.15;2.80;;;26.50;39.70;;;;;;2321182;53;20940;-71
2021/04/21 13:58:17;;;;;;;4.65;2.90;;;26.50;39.50;;;;;;2343000;53;21477;-70
2021/04/21 14:00:43;;;;;;;4.28;2.35;;;26.50;39.30;;;;;;2343028;53;20949;-69
2021/04/21 14:03:10;;;;;;;4.50;2.62;;;26.50;39.20;;;;;;2589819;53;21473;-69
2021/04/21 14:05:37;;;;;;;4.18;2.40;;;26.50;39.10;;;;;;2342918;53;20980;-69
2021/04/21 14:08:04;;;;;;;4.32;2.80;;;26.50;39.20;;;;;;2343823;53;20992;-71
2021/04/21 14:10:34;;;;;;;6.18;2.75;;;26.50;39.10;;;;;;2341734;53;20924;-69
2021/04/21 14:13:00;;;;;;;3.75;2.35;;;26.40;39.10;;;;;;2342618;53;21048;-69
2021/04/21 14:15:27;;;;;;;3.85;2.30;;;26.40;39.20;;;;;;2589679;53;20999;-68
2021/04/21 14:17:53;;;;;;;3.60;2.28;;;26.50;39.20;;;;;;2343109;53;20897;-67
2021/04/21 14:20:22;;;;;;;3.90;2.22;;;26.50;39.30;;;;;;2408267;54;20956;-70
2021/04/21 14:22:49;;;;;;;3.75;2.28;;;26.50;39.30;;;;;;2337041;53;21052;-71
2021/04/21 14:25:19;;;;;;;5.40;2.53;;;26.60;39.50;;;;;;2502122;53;20904;-68